Time;durP1;ratioP1;P1;durP2;ratioP2;P2;SDS_P1;SDS_P2;PMS_P1;PMS_P2;Temp;Humidity;BMP_temperature;BMP_pressure;BME280_temperature;BME280_humidity;BME280_pressure;Samples;Min_cycle;Max_cycle;Signal;HPM_P1;HPM_P2
2022/10/06 07:57:29;;;;;;;12.80;11.48;;;22.80;99.90;;;;;;6236450;22;20031;-80
2022/10/06 07:59:55;;;;;;;13.00;11.73;;;22.70;99.90;;;;;;6216211;23;20034;-79
2022/10/06 08:02:23;;;;;;;13.07;11.95;;;22.50;99.90;;;;;;6243374;23;20315;-78
2022/10/06 08:04:49;;;;;;;12.77;11.68;;;22.60;99.90;;;;;;6221383;23;20031;-78
2022/10/06 08:07:15;;;;;;;12.80;11.55;;;22.50;99.90;;;;;;6248096;22;20083;-78
2022/10/06 08:09:42;;;;;;;13.00;11.80;;;22.40;99.90;;;;;;6221558;23;19996;-78
2022/10/06 08:12:53;;;;;;;13.02;11.68;;;22.60;99.90;;;;;;6248150;23;20030;-78
2022/10/06 08:14:55;;;;;;;12.75;11.70;;;22.70;99.90;;;;;;6227368;23;20019;-78
2022/10/06 08:17:27;;;;;;;13.05;11.75;;;22.70;99.90;;;;;;6248447;22;19996;-79
2022/10/06 08:19:53;;;;;;;13.00;11.80;;;22.70;99.90;;;;;;6248633;23;20011;-78
2022/10/06 08:22:21;;;;;;;18.27;12.18;;;22.90;99.90;;;;;;6248416;23;20011;-78
2022/10/06 08:24:48;;;;;;;12.52;11.43;;;23.00;99.90;;;;;;6248370;23;20004;-78
2022/10/06 08:27:14;;;;;;;12.88;11.80;;;22.80;99.90;;;;;;6247893;22;20012;-79
2022/10/06 08:29:41;;;;;;;12.95;11.73;;;22.70;99.90;;;;;;6195965;23;20011;-78
2022/10/06 08:32:07;;;;;;;13.70;12.27;;;22.70;99.90;;;;;;6247734;23;20015;-78
2022/10/06 08:34:35;;;;;;;13.65;12.30;;;22.50;99.90;;;;;;6221140;23;20000;-78
2022/10/06 08:37:02;;;;;;;12.48;11.48;;;22.50;99.90;;;;;;6221018;23;20315;-78
2022/10/06 08:39:32;;;;;;;13.70;12.43;;;22.50;99.90;;;;;;6247786;22;20127;-79
2022/10/06 08:41:58;;;;;;;12.82;11.88;;;22.50;99.90;;;;;;6247804;23;20358;-78
2022/10/06 08:44:44;;;;;;;15.70;12.50;;;22.70;99.90;;;;;;6247777;23;19996;-78
2022/10/06 08:47:18;;;;;;;12.77;11.63;;;22.70;99.90;;;;;;6220800;22;20008;-78
2022/10/06 08:49:49;;;;;;;12.77;11.68;;;22.70;99.90;;;;;;6221641;23;20012;-78
2022/10/06 08:52:45;;;;;;;13.68;12.57;;;22.50;99.90;;;;;;6248765;23;20038;-79
2022/10/06 08:55:31;;;;;;;13.82;12.65;;;22.60;99.90;;;;;;6249386;23;20079;-78
2022/10/06 08:58:21;;;;;;;14.82;13.57;;;22.60;99.90;;;;;;6192093;23;20028;-79
2022/10/06 09:00:48;;;;;;;14.38;13.38;;;22.60;99.90;;;;;;6193253;23;20012;-79
2022/10/06 09:03:22;;;;;;;15.77;14.38;;;22.50;99.90;;;;;;6217950;23;20004;-79
2022/10/06 09:05:52;;;;;;;;;;;22.80;99.90;;;;;;6218652;23;20008;-79
2022/10/06 09:08:31;;;;;;;16.05;14.73;;;23.00;99.90;;;;;;6192679;23;19899;-79
2022/10/06 09:11:21;;;;;;;14.88;13.75;;;23.10;99.90;;;;;;6219528;23;20423;-79
2022/10/06 09:14:03;;;;;;;15.45;14.32;;;23.20;99.90;;;;;;6217559;23;20013;-80
2022/10/06 09:16:36;;;;;;;15.75;14.50;;;23.30;99.90;;;;;;6216159;23;20008;-79
2022/10/06 09:19:20;;;;;;;15.27;13.80;;;23.10;99.90;;;;;;6215701;23;20012;-79
2022/10/06 09:21:49;;;;;;;15.45;14.15;;;23.10;99.90;;;;;;6217776;23;20009;-79
2022/10/06 09:24:25;;;;;;;15.80;14.60;;;23.20;99.90;;;;;;6218756;23;20479;-80
2022/10/06 09:26:52;;;;;;;15.15;14.05;;;23.10;99.90;;;;;;6218009;23;20426;-79
2022/10/06 09:29:18;;;;;;;15.43;14.23;;;23.40;99.90;;;;;;6215654;23;20008;-79
2022/10/06 09:31:51;;;;;;;15.10;14.00;;;23.10;99.90;;;;;;6217295;23;20054;-79
2022/10/06 09:34:21;;;;;;;15.48;13.93;;;22.90;99.90;;;;;;6215349;23;20091;-80
2022/10/06 09:37:01;;;;;;;15.27;14.18;;;23.00;99.90;;;;;;6215519;23;20035;-79
2022/10/06 09:39:35;;;;;;;17.70;14.48;;;23.10;99.90;;;;;;6190507;23;20084;-80
2022/10/06 09:42:09;;;;;;;14.82;13.93;;;23.10;99.90;;;;;;6215427;23;20015;-80
2022/10/06 09:45:05;;;;;;;15.80;14.48;;;23.20;99.90;;;;;;6216222;23;20407;-80
2022/10/06 09:47:45;;;;;;;15.43;14.43;;;23.20;99.90;;;;;;6217124;23;20392;-80
2022/10/06 09:50:20;;;;;;;16.10;14.80;;;23.20;99.90;;;;;;6217167;23;20074;-79
2022/10/06 09:53:04;;;;;;;16.20;14.88;;;23.20;99.90;;;;;;6218135;23;20338;-79
2022/10/06 09:55:36;;;;;;;16.25;15.05;;;23.30;99.90;;;;;;6216687;23;20009;-79
2022/10/06 09:58:25;;;;;;;16.38;15.23;;;23.00;99.90;;;;;;6235887;22;20095;-80
2022/10/06 10:01:00;;;;;;;16.80;15.80;;;23.20;99.90;;;;;;6248954;23;20007;-79
2022/10/06 10:03:50;;;;;;;16.65;15.50;;;23.30;99.90;;;;;;6248040;23;20482;-79
2022/10/06 10:06:31;;;;;;;17.40;15.85;;;23.00;99.90;;;;;;6219934;23;20004;-80
2022/10/06 10:09:17;;;;;;;16.60;15.50;;;23.00;99.90;;;;;;6194787;23;20430;-80
2022/10/06 10:14:37;;;;;;;15.13;14.32;;;22.80;99.90;;;;;;6246766;23;20054;-80
2022/10/06 10:17:16;;;;;;;16.40;15.20;;;22.70;99.90;;;;;;6247010;23;20045;-80
2022/10/06 10:19:45;;;;;;;16.45;15.38;;;22.60;99.90;;;;;;6195048;23;20008;-81
2022/10/06 10:22:29;;;;;;;16.63;15.50;;;22.60;99.90;;;;;;6194910;23;20035;-80
2022/10/06 10:25:05;;;;;;;16.00;14.93;;;22.80;99.90;;;;;;6247230;23;20001;-80
2022/10/06 10:27:50;;;;;;;17.23;16.10;;;22.90;99.90;;;;;;6219901;22;20011;-80
2022/10/06 10:30:18;;;;;;;17.00;16.00;;;22.90;99.90;;;;;;6195069;23;20004;-80
2022/10/06 10:33:38;;;;;;;16.85;15.50;;;22.80;99.90;;;;;;6219630;23;20352;-80
2022/10/06 10:36:11;;;;;;;16.50;15.50;;;22.90;99.90;;;;;;6141122;23;20336;-80
2022/10/06 10:38:41;;;;;;;16.10;15.10;;;22.60;99.90;;;;;;6247070;22;20134;-82
2022/10/06 10:41:19;;;;;;;16.40;15.18;;;22.80;99.90;;;;;;6195552;23;20011;-80
2022/10/06 10:43:55;;;;;;;16.73;15.50;;;22.60;99.90;;;;;;6195835;23;20015;-82
2022/10/06 10:46:29;;;;;;;16.15;15.05;;;22.60;99.90;;;;;;6195549;23;20008;-81
2022/10/06 10:49:18;;;;;;;16.50;15.38;;;22.70;99.90;;;;;;6196332;23;20008;-81
2022/10/06 10:51:56;;;;;;;16.65;15.55;;;22.80;99.90;;;;;;6198889;23;20039;-81
2022/10/06 10:54:40;;;;;;;17.35;16.10;;;23.10;99.90;;;;;;6195121;23;20083;-81
2022/10/06 10:57:16;;;;;;;16.33;15.25;;;22.90;99.90;;;;;;6214317;23;20063;-81
2022/10/06 11:00:11;;;;;;;16.77;15.77;;;22.90;99.90;;;;;;6216545;23;20015;-81
2022/10/06 11:02:40;;;;;;;16.50;15.40;;;23.00;99.90;;;;;;6129329;23;20019;-81
2022/10/06 11:05:39;;;;;;;16.98;15.90;;;22.90;99.90;;;;;;6129179;23;20009;-81
2022/10/06 11:08:31;;;;;;;16.42;15.43;;;22.70;99.90;;;;;;6153874;23;20428;-81
2022/10/06 11:11:00;;;;;;;16.73;15.63;;;22.70;99.90;;;;;;6153775;23;20009;-81
2022/10/06 11:13:27;;;;;;;17.05;16.05;;;22.90;99.90;;;;;;6153659;23;20025;-81
2022/10/06 11:16:10;;;;;;;17.42;16.30;;;23.00;99.90;;;;;;6154274;23;20009;-80
2022/10/06 11:18:37;;;;;;;17.15;16.02;;;22.90;99.90;;;;;;6129019;23;20036;-81
2022/10/06 11:21:33;;;;;;;16.67;15.68;;;22.80;99.90;;;;;;6154058;23;20001;-80
2022/10/06 11:24:06;;;;;;;17.52;16.23;;;23.00;99.90;;;;;;6113999;23;20088;-81
2022/10/06 11:26:53;;;;;;;17.65;16.55;;;23.00;99.90;;;;;;6153789;23;20321;-81
2022/10/06 11:29:24;;;;;;;17.35;16.02;;;23.00;99.90;;;;;;6153864;23;20145;-81
2022/10/06 11:32:25;;;;;;;;;;;;;;;;;;;;;
2022/10/06 11:54:46;;;;;;;16.15;15.05;;;23.50;99.90;;;;;;6238003;22;20030;-94
2022/10/06 11:57:22;;;;;;;15.70;14.50;;;23.40;99.90;;;;;;6200125;23;20012;-93
2022/10/06 11:59:54;;;;;;;16.13;14.95;;;23.20;99.90;;;;;;6169082;23;20008;-92
2022/10/06 12:02:29;;;;;;;16.17;14.88;;;23.30;99.90;;;;;;6190417;23;20087;-91
2022/10/06 12:05:31;;;;;;;16.65;15.18;;;23.40;99.90;;;;;;6165612;23;20047;-93
2022/10/06 12:08:11;;;;;;;17.45;15.48;;;23.40;99.90;;;;;;6067392;23;20007;-92
2022/10/06 12:10:49;;;;;;;17.50;16.05;;;23.50;99.90;;;;;;6044698;23;20027;-93
2022/10/06 12:13:41;;;;;;;15.73;14.73;;;23.40;99.90;;;;;;6044205;23;20031;-91
2022/10/06 12:16:50;;;;;;;16.02;14.82;;;23.30;99.90;;;;;;6047123;23;20439;-92
2022/10/06 12:19:40;;;;;;;15.85;14.75;;;22.90;99.90;;;;;;6018700;23;20319;-92
2022/10/06 12:25:19;;;;;;;16.23;15.25;;;23.30;99.90;;;;;;6188960;22;20321;-93
2022/10/06 12:28:15;;;;;;;16.17;15.07;;;23.20;99.90;;;;;;6163971;23;20019;-92
2022/10/06 12:31:01;;;;;;;16.85;15.20;;;23.30;99.90;;;;;;6164970;23;20005;-92
2022/10/06 12:33:42;;;;;;;17.00;15.73;;;23.40;99.90;;;;;;6193378;23;20435;-92
2022/10/06 12:36:17;;;;;;;17.20;15.90;;;23.60;99.90;;;;;;6189205;23;20016;-93
2022/10/06 12:39:19;;;;;;;16.98;15.70;;;23.50;99.90;;;;;;6189393;23;20009;-91
2022/10/06 12:49:57;;;;;;;16.00;15.10;;;23.30;99.90;;;;;;6243811;22;20027;-91
2022/10/06 12:52:52;;;;;;;16.42;15.23;;;23.10;99.90;;;;;;6200214;23;20012;-92
2022/10/06 12:55:50;;;;;;;16.73;15.52;;;23.10;99.90;;;;;;6200259;23;20010;-92
2022/10/06 12:58:27;;;;;;;17.02;15.90;;;23.10;99.90;;;;;;6197005;23;20012;-94
2022/10/06 13:01:01;;;;;;;17.20;16.20;;;23.20;99.90;;;;;;6197434;23;20008;-92
2022/10/06 13:03:28;;;;;;;16.38;15.45;;;23.20;99.90;;;;;;6197752;23;20062;-91
2022/10/06 13:06:03;;;;;;;16.88;15.65;;;23.20;99.90;;;;;;6197216;23;20008;-90
2022/10/06 13:08:31;;;;;;;16.77;15.70;;;23.00;99.90;;;;;;6196808;23;20091;-91
2022/10/06 13:11:30;;;;;;;16.50;15.35;;;22.70;99.90;;;;;;6198036;23;20016;-91
2022/10/06 13:14:07;;;;;;;15.88;14.90;;;22.60;99.90;;;;;;6106991;23;20049;-91
2022/10/06 13:16:43;;;;;;;16.45;15.45;;;22.60;99.90;;;;;;6131627;23;20033;-92
2022/10/06 13:19:28;;;;;;;15.93;14.73;;;22.50;99.90;;;;;;6155960;23;20064;-92
2022/10/06 13:21:54;;;;;;;;;;;22.60;99.90;;;;;;6156472;23;20145;-93
2022/10/06 13:24:27;;;;;;;16.75;15.57;;;22.60;99.90;;;;;;6131662;23;19900;-91
2022/10/06 13:27:03;;;;;;;17.45;16.10;;;22.70;99.90;;;;;;6156665;23;20372;-92
2022/10/06 13:30:42;;;;;;;;;;;;;;;;;;;;;
2022/10/06 13:59:42;;;;;;;15.15;13.95;;;22.10;99.90;;;;;;6247832;22;20031;-92
2022/10/06 14:02:17;;;;;;;15.32;14.27;;;22.10;99.90;;;;;;6197206;23;20449;-92
2022/10/06 14:05:25;;;;;;;15.90;14.65;;;22.00;99.90;;;;;;6199043;23;20004;-92
2022/10/06 15:11:06;;;;;;;;;;;;;;;;;;;;;
2022/10/06 15:13:52;;;;;;;11.77;10.88;;;20.60;99.90;;;;;;6089152;23;20036;-91
2022/10/06 15:16:39;;;;;;;11.90;10.95;;;20.50;99.90;;;;;;6170426;23;20013;-92
2022/10/06 15:19:17;;;;;;;11.38;10.43;;;20.40;99.90;;;;;;6193618;23;20025;-92
2022/10/06 15:22:00;;;;;;;11.27;10.32;;;20.40;99.90;;;;;;6191392;23;20009;-93
2022/10/06 15:24:51;;;;;;;11.57;10.77;;;20.30;99.90;;;;;;6193963;23;20079;-93
2022/10/06 15:30:38;;;;;;;15.52;11.48;;;20.30;99.90;;;;;;6192013;23;20013;-92
2022/10/06 15:33:27;;;;;;;12.35;9.70;;;20.30;99.90;;;;;;6191883;23;20465;-92
2022/10/06 15:36:27;;;;;;;7.72;7.00;;;20.30;99.90;;;;;;6168513;23;20005;-93
2022/10/06 15:39:05;;;;;;;6.53;6.07;;;20.10;99.90;;;;;;6166771;23;20012;-92
2022/10/06 15:42:13;;;;;;;;;;;;;;;;;;;;;
2022/10/06 15:45:19;;;;;;;5.63;5.13;;;20.10;99.90;;;;;;6190824;23;20001;-92
2022/10/06 15:48:52;;;;;;;;;;;;;;;;;;;;;
2022/10/06 15:53:04;;;;;;;;;;;;;;;;;;;;;
2022/10/06 15:56:51;;;;;;;6.85;5.38;;;19.80;99.90;;;;;;5991498;23;20103;-93
2022/10/06 16:03:35;;;;;;;6.68;5.20;;;19.70;99.90;;;;;;5967360;24;20092;-93
2022/10/06 16:06:04;;;;;;;6.47;4.43;;;19.60;99.90;;;;;;5956546;24;20425;-90
2022/10/06 16:08:34;;;;;;;4.63;4.30;;;19.70;99.90;;;;;;5971472;24;20066;-91
2022/10/06 16:25:36;;;;;;;4.80;4.20;;;19.20;99.90;;;;;;6249316;22;20031;-92
2022/10/06 16:31:54;;;;;;;4.15;3.50;;;19.00;99.90;;;;;;6224337;23;20107;-94
2022/10/06 16:34:39;;;;;;;5.32;4.00;;;19.00;99.90;;;;;;6197594;23;20030;-92
2022/10/06 16:55:57;;;;;;;7.80;4.13;;;18.70;99.90;;;;;;6249645;22;20028;-92
2022/10/06 16:58:31;;;;;;;5.47;3.83;;;18.70;99.90;;;;;;6222108;23;20008;-92
2022/10/06 17:00:59;;;;;;;6.30;4.22;;;18.70;99.90;;;;;;6222090;22;20020;-92
2022/10/06 17:03:29;;;;;;;10.52;4.20;;;18.70;99.90;;;;;;6197185;23;20019;-92
2022/10/06 17:06:38;;;;;;;;;;;;;;;;;;;;;
2022/10/06 17:09:51;;;;;;;5.35;3.35;;;18.70;99.90;;;;;;6192535;23;20055;-94
2022/10/06 17:12:20;;;;;;;10.15;3.63;;;18.70;99.90;;;;;;6078749;23;20014;-91
2022/10/06 17:14:51;;;;;;;;;;;18.60;99.90;;;;;;6127609;23;20010;-92
2022/10/06 17:17:49;;;;;;;9.25;3.70;;;18.60;99.90;;;;;;6104664;23;19992;-92
2022/10/06 17:20:19;;;;;;;6.32;2.95;;;18.60;99.90;;;;;;6103155;23;20010;-91
2022/10/06 17:22:46;;;;;;;6.30;3.28;;;18.50;99.90;;;;;;6126668;23;20487;-93
2022/10/06 17:25:13;;;;;;;6.70;3.30;;;18.50;99.90;;;;;;6127021;23;20010;-93
2022/10/06 17:27:40;;;;;;;4.40;3.35;;;18.50;99.90;;;;;;6126861;23;20441;-92
2022/10/06 17:32:43;;;;;;;6.40;3.00;;;18.40;99.90;;;;;;6249218;22;20035;-94
2022/10/06 17:35:10;;;;;;;4.75;2.83;;;18.40;99.90;;;;;;6200928;23;20004;-91
2022/10/06 17:37:49;;;;;;;8.40;3.15;;;18.40;99.90;;;;;;6171322;23;20104;-92
2022/10/06 18:56:19;;;;;;;5.90;3.78;;;18.00;99.90;;;;;;6229616;22;20111;-93
2022/10/06 19:38:58;;;;;;;7.30;3.70;;;17.90;99.90;;;;;;6022782;23;20019;-93
2022/10/06 19:56:31;;;;;;;8.63;4.18;;;17.90;99.90;;;;;;6230896;22;20111;-93
2022/10/06 19:59:10;;;;;;;5.32;3.70;;;17.90;99.90;;;;;;6167553;23;20016;-93
2022/10/06 20:01:49;;;;;;;5.68;3.95;;;17.90;99.90;;;;;;6137132;23;20009;-91
2022/10/06 20:04:21;;;;;;;6.85;3.75;;;17.80;99.90;;;;;;6137452;23;20009;-91
2022/10/06 20:11:37;;;;;;;;;;;;;;;;;;;;;
2022/10/06 20:30:52;;;;;;;5.50;4.15;;;17.60;99.90;;;;;;6250569;22;20031;-94
2022/10/06 20:34:01;;;;;;;;;;;;;;;;;;;;;
2022/10/06 20:37:18;;;;;;;7.32;4.38;;;17.60;99.90;;;;;;6207391;23;20004;-92
2022/10/06 20:43:55;;;;;;;6.85;4.43;;;17.50;99.90;;;;;;6043320;23;20085;-92
2022/10/06 20:47:15;;;;;;;;;;;;;;;;;;;;;
2022/10/06 20:56:26;;;;;;;7.28;4.50;;;17.40;99.90;;;;;;6146451;22;20058;-92
2022/10/06 20:59:10;;;;;;;8.60;4.28;;;17.40;99.90;;;;;;6199232;23;20047;-93
2022/10/06 21:01:43;;;;;;;7.20;4.40;;;17.40;99.90;;;;;;6198443;23;20008;-93
2022/10/06 21:04:34;;;;;;;11.07;3.90;;;17.40;99.90;;;;;;6168804;23;20015;-92
2022/10/06 21:16:20;;;;;;;6.15;3.92;;;17.50;99.90;;;;;;6219723;22;20072;-93
2022/10/06 21:19:09;;;;;;;6.57;4.20;;;17.40;99.90;;;;;;6197411;23;20017;-93
2022/10/06 21:22:05;;;;;;;9.38;4.15;;;17.30;99.90;;;;;;6192262;23;20079;-92
2022/10/06 21:24:34;;;;;;;8.07;4.45;;;17.30;99.90;;;;;;6162513;23;20016;-93
2022/10/06 21:27:04;;;;;;;7.50;3.90;;;17.30;99.90;;;;;;6175572;23;20035;-92
2022/10/06 21:29:35;;;;;;;6.95;4.00;;;17.30;99.90;;;;;;6222920;23;20031;-93
2022/10/06 21:32:02;;;;;;;10.55;4.53;;;17.30;99.90;;;;;;6222693;23;20012;-92
2022/10/06 21:34:28;;;;;;;11.52;4.95;;;17.30;99.90;;;;;;6232826;23;20001;-92
2022/10/06 21:37:19;;;;;;;7.55;4.43;;;17.30;99.90;;;;;;6210628;23;20011;-92
